Time;durP1;ratioP1;P1;durP2;ratioP2;P2;SDS_P1;SDS_P2;PMS_P1;PMS_P2;Temp;Humidity;BMP_temperature;BMP_pressure;BME280_temperature;BME280_humidity;BME280_pressure;Samples;Min_cycle;Max_cycle;Signal;HPM_P1;HPM_P2
2020/12/24 00:01:41;;;;;;;1.50;1.33;;;13.30;98.90;;;;;;5073330;28;20649;-58
2020/12/24 00:04:09;;;;;;;1.37;1.10;;;13.30;99.00;;;;;;5073089;28;20661;-58
2020/12/24 00:06:36;;;;;;;3.03;2.40;;;13.20;99.00;;;;;;5073007;28;20696;-57
2020/12/24 00:09:03;;;;;;;1.27;1.17;;;13.20;99.10;;;;;;5073310;28;21008;-57
2020/12/24 00:11:29;;;;;;;2.03;0.93;;;13.20;99.10;;;;;;5073348;28;20751;-57
2020/12/24 00:13:56;;;;;;;1.60;1.50;;;13.20;99.00;;;;;;5055117;28;20706;-58
2020/12/24 00:16:23;;;;;;;1.23;1.13;;;13.20;99.00;;;;;;5072887;28;20697;-58
2020/12/24 00:18:49;;;;;;;1.80;1.50;;;13.20;98.90;;;;;;5072454;28;21094;-57
2020/12/24 00:21:17;;;;;;;0.90;0.90;;;13.20;98.40;;;;;;5072670;28;20710;-57
2020/12/24 00:23:44;;;;;;;0.83;0.83;;;13.20;97.40;;;;;;5072511;28;20660;-55
2020/12/24 00:26:10;;;;;;;3.43;1.37;;;13.20;96.40;;;;;;5072615;28;21072;-58
2020/12/24 00:28:37;;;;;;;1.87;1.13;;;13.10;95.30;;;;;;5072883;28;21043;-59
2020/12/24 00:31:04;;;;;;;1.10;0.80;;;13.00;94.30;;;;;;5072945;28;20685;-58
2020/12/24 00:33:31;;;;;;;0.80;0.80;;;13.00;93.90;;;;;;5072902;28;21013;-59
2020/12/24 00:35:58;;;;;;;2.40;1.00;;;13.00;93.00;;;;;;5072679;28;21294;-56
2020/12/24 00:38:25;;;;;;;2.63;1.20;;;13.00;92.30;;;;;;5072536;28;21032;-58
2020/12/24 00:40:53;;;;;;;3.03;1.53;;;13.00;92.40;;;;;;5072997;28;20648;-57
2020/12/24 00:43:20;;;;;;;4.03;1.20;;;13.00;91.80;;;;;;5072602;28;20671;-58
2020/12/24 00:45:46;;;;;;;1.83;1.00;;;13.00;90.80;;;;;;5072622;28;20661;-58
2020/12/24 00:48:13;;;;;;;4.77;1.60;;;13.00;89.80;;;;;;5072543;28;20649;-57
2020/12/24 00:50:40;;;;;;;2.00;1.20;;;12.90;89.60;;;;;;5072346;28;20661;-57
2020/12/24 00:53:07;;;;;;;1.30;1.10;;;12.90;88.80;;;;;;5072366;28;20657;-58
2020/12/24 00:55:34;;;;;;;3.20;1.30;;;12.90;90.00;;;;;;5072253;28;20654;-56
2020/12/24 00:58:01;;;;;;;2.27;1.40;;;12.90;89.80;;;;;;5072222;28;20657;-58
2020/12/24 01:00:28;;;;;;;3.70;1.00;;;12.80;89.10;;;;;;5072131;28;20988;-58
2020/12/24 01:02:54;;;;;;;1.93;1.10;;;12.80;89.40;;;;;;5072165;28;20657;-57
2020/12/24 01:05:21;;;;;;;5.10;1.57;;;12.70;89.20;;;;;;5053487;28;20633;-57
2020/12/24 01:07:48;;;;;;;3.40;1.20;;;12.70;89.90;;;;;;5072074;28;20680;-57
2020/12/24 01:10:15;;;;;;;4.90;1.17;;;12.60;90.10;;;;;;5072202;28;20652;-58
2020/12/24 01:12:42;;;;;;;3.37;1.27;;;12.60;90.20;;;;;;5072011;28;20689;-57
2020/12/24 01:15:10;;;;;;;5.80;1.73;;;12.60;90.30;;;;;;5071831;28;20656;-56
2020/12/24 01:17:37;;;;;;;4.20;1.53;;;12.70;89.70;;;;;;5053587;28;20726;-58
2020/12/24 01:20:04;;;;;;;1.43;1.00;;;12.70;90.00;;;;;;5071785;28;20620;-57
2020/12/24 01:22:31;;;;;;;3.30;1.17;;;12.70;89.90;;;;;;5071634;28;21249;-57
2020/12/24 01:24:58;;;;;;;8.73;1.97;;;12.70;88.40;;;;;;5071737;28;21308;-59
2020/12/24 01:27:25;;;;;;;4.03;1.47;;;12.60;88.10;;;;;;5071734;28;20689;-57
2020/12/24 01:29:52;;;;;;;2.93;1.50;;;12.60;88.60;;;;;;5071513;28;20657;-57
2020/12/24 01:32:19;;;;;;;6.63;1.90;;;12.50;87.90;;;;;;5071388;28;20711;-57
2020/12/24 01:34:46;;;;;;;4.73;1.43;;;12.50;87.40;;;;;;5071558;28;20633;-58
2020/12/24 01:37:12;;;;;;;8.50;1.40;;;12.40;87.50;;;;;;5071296;28;20998;-58
2020/12/24 01:39:39;;;;;;;5.43;1.47;;;12.40;87.90;;;;;;5071572;28;20668;-58
2020/12/24 01:42:06;;;;;;;4.23;1.60;;;12.40;87.90;;;;;;5071479;28;20617;-58
2020/12/24 01:44:33;;;;;;;2.70;1.20;;;12.40;88.10;;;;;;5071250;28;20671;-57
2020/12/24 01:47:00;;;;;;;10.20;2.50;;;12.40;89.00;;;;;;5071004;28;20657;-58
2020/12/24 01:49:27;;;;;;;5.90;2.40;;;12.40;88.60;;;;;;5071414;28;20617;-57
2020/12/24 01:51:56;;;;;;;6.67;2.17;;;12.30;88.20;;;;;;5071248;28;20697;-57
2020/12/24 01:54:23;;;;;;;2.57;1.10;;;12.40;87.70;;;;;;5071252;28;20617;-58
2020/12/24 01:56:50;;;;;;;4.10;2.23;;;12.40;88.20;;;;;;5071137;28;20657;-58
2020/12/24 01:59:17;;;;;;;2.97;1.27;;;12.40;88.60;;;;;;5071475;28;20664;-59
2020/12/24 02:01:44;;;;;;;3.20;1.77;;;12.30;89.10;;;;;;5071448;28;20653;-58
2020/12/24 02:04:12;;;;;;;6.63;2.00;;;12.30;88.80;;;;;;5071235;28;21180;-58
2020/12/24 02:06:39;;;;;;;2.90;1.10;;;12.30;88.00;;;;;;5071069;28;20691;-58
2020/12/24 02:09:06;;;;;;;7.27;1.70;;;12.20;87.10;;;;;;5071148;28;20653;-57
2020/12/24 02:11:32;;;;;;;5.90;2.00;;;12.20;85.60;;;;;;5071167;28;20689;-58
2020/12/24 02:13:59;;;;;;;6.03;1.67;;;12.20;86.20;;;;;;5071231;28;20668;-58
2020/12/24 02:16:26;;;;;;;6.60;1.73;;;12.20;87.40;;;;;;5070507;28;21026;-57
2020/12/24 02:18:53;;;;;;;6.00;1.90;;;12.20;86.70;;;;;;5052750;28;20625;-58
2020/12/24 02:21:20;;;;;;;7.40;2.03;;;12.20;87.10;;;;;;5071357;28;20676;-58
2020/12/24 02:23:47;;;;;;;7.53;2.47;;;12.20;85.70;;;;;;5070793;28;20660;-58
2020/12/24 02:26:14;;;;;;;3.13;1.83;;;12.10;85.80;;;;;;5071221;28;20649;-58
2020/12/24 02:28:41;;;;;;;6.57;1.97;;;12.10;86.90;;;;;;5070735;28;20645;-58
2020/12/24 02:31:08;;;;;;;4.63;1.23;;;12.10;87.00;;;;;;5071076;28;20721;-57
2020/12/24 02:33:34;;;;;;;7.70;2.70;;;12.10;88.10;;;;;;5070969;28;21007;-58
2020/12/24 02:36:01;;;;;;;7.03;1.53;;;12.10;88.20;;;;;;5070996;28;21066;-58
2020/12/24 02:38:29;;;;;;;4.20;1.67;;;12.20;87.40;;;;;;5071082;28;20653;-58
2020/12/24 02:40:55;;;;;;;4.87;1.40;;;12.20;86.90;;;;;;5053184;28;20630;-57
2020/12/24 02:43:22;;;;;;;3.13;2.17;;;12.20;87.50;;;;;;5071334;28;20633;-57
2020/12/24 02:45:49;;;;;;;3.43;1.37;;;12.10;87.30;;;;;;5071367;28;20668;-56
2020/12/24 02:48:16;;;;;;;3.30;1.97;;;12.10;87.60;;;;;;5070878;28;20649;-56
2020/12/24 02:50:42;;;;;;;13.67;1.13;;;12.10;87.70;;;;;;5071126;28;21109;-57
2020/12/24 02:53:10;;;;;;;3.97;2.53;;;12.00;88.40;;;;;;5070582;28;20696;-57
2020/12/24 02:55:37;;;;;;;4.93;1.60;;;12.00;87.90;;;;;;5070704;28;21223;-58
2020/12/24 02:58:05;;;;;;;4.13;2.60;;;11.90;87.50;;;;;;5070768;28;20621;-57
2020/12/24 03:00:32;;;;;;;6.00;1.67;;;11.90;87.30;;;;;;5071503;28;20657;-56
2020/12/24 03:02:58;;;;;;;1.97;1.70;;;11.80;87.60;;;;;;5071144;28;20660;-56
2020/12/24 03:05:25;;;;;;;5.33;2.40;;;11.80;88.50;;;;;;5071147;28;20625;-56
2020/12/24 03:07:52;;;;;;;7.30;1.43;;;11.70;89.40;;;;;;5071553;28;20660;-58
2020/12/24 03:10:19;;;;;;;7.20;1.80;;;11.70;89.70;;;;;;5071064;28;20664;-58
2020/12/24 03:12:46;;;;;;;3.80;1.90;;;11.70;89.60;;;;;;5071015;28;20689;-58
2020/12/24 03:15:14;;;;;;;6.70;1.27;;;11.70;89.80;;;;;;5071042;28;21174;-58
2020/12/24 03:17:40;;;;;;;2.40;1.20;;;11.60;89.10;;;;;;5070462;28;20691;-58
2020/12/24 03:20:07;;;;;;;6.23;1.80;;;11.50;88.80;;;;;;5070855;28;20617;-58
2020/12/24 03:22:35;;;;;;;8.30;1.60;;;11.60;89.20;;;;;;5070384;28;20661;-58
2020/12/24 03:25:01;;;;;;;5.93;1.63;;;11.60;89.60;;;;;;5070581;28;20659;-58
2020/12/24 03:27:28;;;;;;;4.27;2.00;;;11.50;88.70;;;;;;5070693;28;20692;-59
2020/12/24 03:29:56;;;;;;;2.63;1.47;;;11.50;88.60;;;;;;5073840;28;20656;-58
2020/12/24 03:32:22;;;;;;;2.97;1.70;;;11.50;88.40;;;;;;5073912;28;20681;-56
2020/12/24 03:34:49;;;;;;;5.30;2.20;;;11.50;89.00;;;;;;5055961;28;21208;-58
2020/12/24 03:37:16;;;;;;;5.20;1.60;;;11.50;89.10;;;;;;5073941;28;20660;-58
2020/12/24 03:39:43;;;;;;;11.37;2.10;;;11.50;89.20;;;;;;5073510;28;21041;-57
2020/12/24 03:42:09;;;;;;;6.90;2.00;;;11.40;89.20;;;;;;5073931;28;20653;-57
2020/12/24 03:44:36;;;;;;;14.60;2.67;;;11.30;89.40;;;;;;5073679;28;20660;-57
2020/12/24 03:47:04;;;;;;;5.90;1.80;;;11.30;89.70;;;;;;5073800;28;20684;-57
2020/12/24 03:49:31;;;;;;;7.90;1.60;;;11.30;90.00;;;;;;5073875;28;20665;-57
2020/12/24 03:51:57;;;;;;;6.80;2.07;;;11.30;89.70;;;;;;5073764;28;20685;-57
2020/12/24 03:54:24;;;;;;;4.30;1.50;;;11.20;88.30;;;;;;5073087;28;21087;-57
2020/12/24 03:56:51;;;;;;;6.23;1.70;;;11.30;88.80;;;;;;5072339;28;21215;-57
2020/12/24 03:59:18;;;;;;;8.30;2.10;;;11.30;88.40;;;;;;5072604;28;20621;-58
2020/12/24 04:01:44;;;;;;;7.63;2.70;;;11.30;88.20;;;;;;5073836;28;20621;-58
2020/12/24 04:04:12;;;;;;;3.83;1.40;;;11.40;87.60;;;;;;5073489;28;20644;-57
2020/12/24 04:06:39;;;;;;;10.47;2.80;;;11.40;87.20;;;;;;5055445;28;20657;-57
2020/12/24 04:09:05;;;;;;;4.30;1.60;;;11.50;86.40;;;;;;5073365;28;20973;-57
2020/12/24 04:11:32;;;;;;;5.57;1.77;;;11.50;86.70;;;;;;5073397;28;21010;-57
2020/12/24 04:13:59;;;;;;;4.57;2.17;;;11.50;86.80;;;;;;5073243;28;21254;-56
2020/12/24 04:16:26;;;;;;;7.67;3.50;;;11.50;86.30;;;;;;5055119;28;20664;-57
2020/12/24 04:18:53;;;;;;;2.73;1.30;;;11.50;86.60;;;;;;5072909;28;20617;-57
2020/12/24 04:21:21;;;;;;;6.07;2.50;;;11.50;86.60;;;;;;5073115;28;20641;-57
2020/12/24 04:23:47;;;;;;;9.03;3.37;;;11.50;86.60;;;;;;5073203;28;21180;-57
2020/12/24 04:26:20;;;;;;;4.50;1.80;;;11.40;86.50;;;;;;5072791;28;20668;-56
2020/12/24 04:28:47;;;;;;;6.93;2.00;;;11.40;86.90;;;;;;5073005;28;20666;-58
2020/12/24 04:31:14;;;;;;;4.70;2.50;;;11.40;87.50;;;;;;5072865;28;20621;-58
2020/12/24 04:33:40;;;;;;;2.20;1.53;;;11.30;87.60;;;;;;5072397;28;20664;-58
2020/12/24 04:36:07;;;;;;;5.53;1.80;;;11.30;87.80;;;;;;5072959;28;21052;-58
2020/12/24 04:38:35;;;;;;;4.87;1.30;;;11.30;87.50;;;;;;5072635;28;20676;-57
2020/12/24 04:41:02;;;;;;;4.33;1.40;;;11.30;87.90;;;;;;5071743;28;20632;-57
2020/12/24 04:43:28;;;;;;;4.70;2.00;;;11.30;87.60;;;;;;5072413;28;20662;-58
2020/12/24 04:45:55;;;;;;;7.20;2.20;;;11.30;87.10;;;;;;5072501;28;20755;-56
2020/12/24 04:48:22;;;;;;;8.53;2.10;;;11.30;87.60;;;;;;5072228;28;21051;-57
2020/12/24 04:50:50;;;;;;;3.40;1.33;;;11.30;87.30;;;;;;5072738;28;20621;-56
2020/12/24 04:53:17;;;;;;;7.23;2.47;;;11.30;87.00;;;;;;5072321;28;20665;-57
2020/12/24 04:55:44;;;;;;;3.57;1.43;;;11.40;87.10;;;;;;5072492;28;20609;-57
2020/12/24 04:58:11;;;;;;;9.17;2.27;;;11.40;86.90;;;;;;5072704;28;20691;-57
2020/12/24 05:00:39;;;;;;;6.00;1.77;;;11.40;86.10;;;;;;5072145;28;20625;-57
2020/12/24 05:03:06;;;;;;;4.83;2.13;;;11.40;86.10;;;;;;5072406;28;20666;-57
2020/12/24 05:05:33;;;;;;;3.23;1.23;;;11.40;86.30;;;;;;5072323;28;20675;-57
2020/12/24 05:08:01;;;;;;;4.90;1.43;;;11.40;86.00;;;;;;5072219;28;20625;-57
2020/12/24 05:10:28;;;;;;;9.33;2.13;;;11.40;85.70;;;;;;5072126;28;20659;-56
2020/12/24 05:12:57;;;;;;;10.53;2.27;;;11.40;86.10;;;;;;5072300;28;20702;-56
2020/12/24 05:15:27;;;;;;;5.37;1.30;;;11.40;85.80;;;;;;5072292;28;20674;-58
2020/12/24 05:17:54;;;;;;;7.43;2.70;;;11.40;85.00;;;;;;5099830;23;20745;-49
2020/12/24 05:20:20;;;;;;;7.87;2.30;;;11.40;84.50;;;;;;5090525;28;21024;-49
2020/12/24 05:22:47;;;;;;;8.63;2.50;;;11.40;83.60;;;;;;5090661;28;20768;-49
2020/12/24 05:25:20;;;;;;;3.70;1.90;;;11.40;84.10;;;;;;5090531;28;21059;-49
2020/12/24 05:27:56;;;;;;;9.23;2.00;;;11.40;83.70;;;;;;5090498;28;20751;-49
2020/12/24 05:30:25;;;;;;;4.27;1.77;;;11.40;83.10;;;;;;5090690;28;20653;-49
2020/12/24 05:32:52;;;;;;;6.33;1.70;;;11.40;83.00;;;;;;5090352;28;20656;-49
2020/12/24 05:35:22;;;;;;;2.10;0.90;;;11.40;82.20;;;;;;5090503;28;20628;-49
2020/12/24 05:37:50;;;;;;;4.80;1.27;;;11.40;82.40;;;;;;5090655;28;20656;-49
2020/12/24 05:40:18;;;;;;;2.30;1.57;;;11.40;82.70;;;;;;5076377;28;20633;-49
2020/12/24 05:42:49;;;;;;;4.43;1.53;;;11.30;82.80;;;;;;5070090;28;20682;-49
2020/12/24 05:45:17;;;;;;;4.17;1.43;;;11.30;82.80;;;;;;5070191;28;20629;-49
2020/12/24 05:47:44;;;;;;;2.60;1.03;;;11.30;84.10;;;;;;5069963;28;20734;-50
2020/12/24 05:50:23;;;;;;;7.57;2.23;;;11.30;84.40;;;;;;5070162;28;20690;-49
2020/12/24 05:53:09;;;;;;;1.43;1.13;;;11.30;84.70;;;;;;5069902;28;21211;-49
2020/12/24 05:55:37;;;;;;;7.03;2.00;;;11.30;85.10;;;;;;5070141;28;20659;-49
2020/12/24 05:58:04;;;;;;;8.77;1.90;;;11.30;84.60;;;;;;5069805;28;20741;-49
2020/12/24 06:00:35;;;;;;;6.70;1.90;;;11.30;84.90;;;;;;5070067;28;20633;-50
2020/12/24 06:03:19;;;;;;;5.13;1.80;;;11.30;85.50;;;;;;5069750;28;21183;-49
2020/12/24 06:05:57;;;;;;;3.53;1.77;;;11.30;85.90;;;;;;5070039;28;20625;-49
2020/12/24 06:08:25;;;;;;;3.37;1.97;;;11.30;86.30;;;;;;5070086;28;20628;-51
2020/12/24 06:11:00;;;;;;;3.07;1.57;;;11.30;86.90;;;;;;5069843;28;21148;-51
2020/12/24 06:13:35;;;;;;;5.50;2.03;;;11.20;87.10;;;;;;5069844;28;21219;-53
2020/12/24 06:16:04;;;;;;;2.00;1.33;;;11.20;88.10;;;;;;5069685;28;20678;-50
2020/12/24 06:18:32;;;;;;;3.70;1.20;;;11.20;87.70;;;;;;5069535;28;20781;-51
2020/12/24 06:21:00;;;;;;;2.57;1.30;;;11.10;89.00;;;;;;5069793;28;20617;-51
2020/12/24 06:23:27;;;;;;;4.27;1.37;;;10.90;89.80;;;;;;5069162;28;20748;-51
2020/12/24 06:25:53;;;;;;;8.00;2.57;;;10.90;90.90;;;;;;5069255;28;20897;-51
2020/12/24 06:28:20;;;;;;;3.43;1.33;;;10.90;91.10;;;;;;5069468;28;20624;-51
2020/12/24 06:30:47;;;;;;;3.30;1.40;;;10.90;91.60;;;;;;5069043;28;20686;-51
2020/12/24 06:33:25;;;;;;;1.60;0.83;;;10.80;92.00;;;;;;5069511;28;21212;-51
2020/12/24 06:35:51;;;;;;;9.73;1.80;;;10.70;92.50;;;;;;5069391;28;20624;-51
2020/12/24 06:38:19;;;;;;;3.33;1.23;;;10.60;93.30;;;;;;5069351;28;20711;-52
2020/12/24 06:40:45;;;;;;;7.23;1.70;;;10.50;94.00;;;;;;5050503;28;20633;-52
2020/12/24 06:43:12;;;;;;;7.90;1.57;;;10.50;94.60;;;;;;5051555;28;20633;-52
2020/12/24 06:45:39;;;;;;;5.03;1.83;;;10.50;94.80;;;;;;5069350;28;20629;-51
2020/12/24 06:48:21;;;;;;;3.03;1.50;;;10.50;94.90;;;;;;5069106;28;20702;-52
2020/12/24 06:50:48;;;;;;;3.30;1.10;;;10.60;95.10;;;;;;5069536;28;20624;-51
2020/12/24 06:53:28;;;;;;;5.17;1.90;;;10.50;95.20;;;;;;5069173;28;20657;-51
2020/12/24 06:56:23;;;;;;;5.73;1.67;;;10.50;95.40;;;;;;5069395;28;20690;-52
2020/12/24 06:58:52;;;;;;;2.43;1.83;;;10.50;95.70;;;;;;5069237;28;20629;-51
2020/12/24 07:01:20;;;;;;;7.80;1.70;;;10.40;95.90;;;;;;5069044;28;20625;-52
2020/12/24 07:03:47;;;;;;;7.10;2.60;;;10.40;96.30;;;;;;5052164;28;20609;-50
2020/12/24 07:06:14;;;;;;;9.83;1.97;;;10.30;96.60;;;;;;5072882;28;20625;-50
2020/12/24 07:08:47;;;;;;;5.47;2.30;;;10.30;96.90;;;;;;5072729;28;20629;-51
2020/12/24 07:11:39;;;;;;;3.43;1.53;;;10.20;97.30;;;;;;5072835;28;20662;-50
2020/12/24 07:14:06;;;;;;;4.47;1.47;;;10.20;97.70;;;;;;5072545;28;20693;-51
2020/12/24 07:16:48;;;;;;;5.00;1.67;;;10.20;97.80;;;;;;5072685;28;20734;-50
2020/12/24 07:19:16;;;;;;;5.50;2.33;;;10.20;98.00;;;;;;5073023;28;20620;-50
2020/12/24 07:21:47;;;;;;;3.70;1.80;;;10.10;98.20;;;;;;5072597;28;20770;-50
2020/12/24 07:24:15;;;;;;;6.20;1.70;;;10.10;98.40;;;;;;5072505;28;20655;-51
2020/12/24 07:26:42;;;;;;;4.10;1.47;;;10.10;98.60;;;;;;5072830;28;20661;-51
2020/12/24 07:29:10;;;;;;;4.67;1.70;;;10.10;98.70;;;;;;5072880;28;20679;-51
2020/12/24 07:31:37;;;;;;;4.90;1.30;;;10.00;98.80;;;;;;5073038;28;20647;-51
2020/12/24 07:34:04;;;;;;;1.80;0.97;;;10.10;98.90;;;;;;5072557;28;20738;-51
2020/12/24 07:36:32;;;;;;;3.57;1.70;;;10.10;98.80;;;;;;5072701;28;20657;-50
2020/12/24 07:38:58;;;;;;;4.03;1.63;;;10.00;98.90;;;;;;5071662;28;21251;-50
2020/12/24 07:41:25;;;;;;;10.80;2.40;;;9.90;99.60;;;;;;5072791;28;21290;-50
2020/12/24 07:43:52;;;;;;;4.10;1.80;;;9.90;99.80;;;;;;5072567;28;20625;-50
2020/12/24 07:46:21;;;;;;;3.23;1.17;;;9.90;99.90;;;;;;5072755;28;20653;-50
2020/12/24 07:48:49;;;;;;;3.23;1.90;;;10.00;99.40;;;;;;5072947;28;20593;-50
2020/12/24 07:51:16;;;;;;;3.90;1.77;;;9.90;99.90;;;;;;5072789;28;20633;-50
2020/12/24 07:53:43;;;;;;;4.63;2.03;;;9.90;99.90;;;;;;5072017;28;20756;-50
2020/12/24 07:56:10;;;;;;;3.57;1.67;;;10.00;99.50;;;;;;5072504;28;20644;-50
2020/12/24 07:58:37;;;;;;;3.90;2.10;;;10.00;99.40;;;;;;5072565;28;20678;-51
2020/12/24 08:01:05;;;;;;;8.13;2.00;;;10.10;99.40;;;;;;5072651;28;20633;-52
2020/12/24 08:03:31;;;;;;;3.60;1.67;;;10.10;99.40;;;;;;5072085;28;20666;-52
2020/12/24 08:06:02;;;;;;;1.80;1.50;;;10.10;99.50;;;;;;5054063;28;21203;-52
2020/12/24 08:08:28;;;;;;;7.27;2.60;;;10.10;99.20;;;;;;5072384;28;20629;-52
2020/12/24 08:10:56;;;;;;;5.63;1.70;;;10.10;99.20;;;;;;5072074;28;20687;-52
2020/12/24 08:13:23;;;;;;;3.90;2.00;;;10.10;99.30;;;;;;5071572;28;21208;-52
2020/12/24 08:15:50;;;;;;;6.80;1.47;;;10.10;99.30;;;;;;5072387;28;20666;-52
2020/12/24 08:18:21;;;;;;;4.47;1.60;;;10.20;99.50;;;;;;5071914;28;20760;-51
2020/12/24 08:20:50;;;;;;;4.00;1.47;;;10.10;99.10;;;;;;5072154;28;20717;-51
2020/12/24 08:23:19;;;;;;;1.93;1.27;;;10.10;99.40;;;;;;5071844;28;21011;-51
2020/12/24 08:25:47;;;;;;;3.00;1.30;;;9.90;99.90;;;;;;5071901;28;20632;-50
2020/12/24 08:28:15;;;;;;;6.50;2.23;;;10.00;99.60;;;;;;5071936;28;20707;-50
2020/12/24 08:30:44;;;;;;;3.93;1.60;;;10.00;99.70;;;;;;5071769;28;20628;-51
2020/12/24 08:33:12;;;;;;;3.60;1.47;;;10.00;99.70;;;;;;5071590;28;20664;-51
2020/12/24 08:35:39;;;;;;;2.60;2.17;;;10.00;99.70;;;;;;5071641;28;20639;-51
2020/12/24 08:38:12;;;;;;;7.20;2.00;;;10.00;99.70;;;;;;5071016;28;20718;-52
2020/12/24 08:40:39;;;;;;;4.60;1.63;;;10.10;99.70;;;;;;5071101;28;21217;-50
2020/12/24 08:43:07;;;;;;;4.60;1.70;;;10.10;99.70;;;;;;5071117;28;20679;-52
2020/12/24 08:45:42;;;;;;;2.10;1.27;;;10.10;99.60;;;;;;5070947;28;20633;-49
2020/12/24 08:48:08;;;;;;;4.57;1.53;;;10.10;99.80;;;;;;5070906;28;20710;-50
2020/12/24 08:50:36;;;;;;;8.03;1.57;;;10.10;99.50;;;;;;5070566;28;20683;-49
2020/12/24 08:53:05;;;;;;;3.10;1.80;;;10.20;99.60;;;;;;5070481;28;20718;-50
2020/12/24 08:55:32;;;;;;;5.53;2.17;;;10.20;99.20;;;;;;5070721;28;20740;-50
2020/12/24 08:57:58;;;;;;;3.53;1.67;;;10.10;98.80;;;;;;5070517;28;20829;-50
2020/12/24 09:00:25;;;;;;;6.50;3.03;;;10.10;98.80;;;;;;5070371;28;20625;-53
2020/12/24 09:02:53;;;;;;;2.30;1.10;;;10.00;98.40;;;;;;5070377;28;20629;-52
2020/12/24 09:05:23;;;;;;;3.90;2.30;;;9.90;99.00;;;;;;5070804;28;20625;-53
2020/12/24 09:07:50;;;;;;;2.13;0.90;;;9.80;98.70;;;;;;5070204;28;20706;-52
2020/12/24 09:10:20;;;;;;;1.27;0.77;;;9.70;98.60;;;;;;5070502;28;20633;-52
2020/12/24 09:12:47;;;;;;;2.73;0.70;;;9.80;98.60;;;;;;5070346;28;21301;-52
2020/12/24 09:15:14;;;;;;;0.40;0.30;;;9.80;98.50;;;;;;5070713;28;20629;-53
2020/12/24 09:17:51;;;;;;;1.90;0.80;;;9.80;98.20;;;;;;5069982;28;20772;-53
2020/12/24 09:20:23;;;;;;;0.90;0.77;;;9.70;98.40;;;;;;5070556;28;20628;-52
2020/12/24 09:22:50;;;;;;;1.90;0.83;;;9.80;98.40;;;;;;5069051;28;20686;-53
2020/12/24 09:25:35;;;;;;;1.23;0.90;;;9.80;98.20;;;;;;5052336;28;20637;-51
2020/12/24 09:28:01;;;;;;;3.37;0.80;;;9.90;98.30;;;;;;5069504;28;20822;-51
2020/12/24 09:30:28;;;;;;;1.13;0.57;;;9.90;98.00;;;;;;5070528;28;20625;-51
2020/12/24 09:32:55;;;;;;;1.50;0.90;;;9.90;97.80;;;;;;5070072;28;21052;-52
2020/12/24 09:35:24;;;;;;;1.93;0.73;;;9.90;97.90;;;;;;5052257;28;20633;-51
2020/12/24 09:37:51;;;;;;;0.90;0.70;;;9.90;97.80;;;;;;5069925;28;20716;-51
2020/12/24 09:40:17;;;;;;;0.93;0.50;;;9.80;97.50;;;;;;5069768;28;20659;-51
2020/12/24 09:42:44;;;;;;;3.30;0.83;;;9.80;97.90;;;;;;5070520;28;20629;-50
2020/12/24 09:45:11;;;;;;;1.60;0.70;;;9.70;97.80;;;;;;5070066;28;20630;-50
2020/12/24 09:47:38;;;;;;;1.13;0.60;;;9.70;98.00;;;;;;5069741;28;20725;-50
2020/12/24 09:50:05;;;;;;;0.80;0.80;;;9.60;97.80;;;;;;5069960;28;20629;-50
2020/12/24 09:52:32;;;;;;;1.27;0.67;;;9.60;98.10;;;;;;5069923;28;20625;-50
2020/12/24 09:54:59;;;;;;;0.90;0.63;;;9.70;98.00;;;;;;5069741;28;20690;-50
2020/12/24 09:57:26;;;;;;;1.17;0.70;;;9.70;97.90;;;;;;5069476;28;20675;-51
2020/12/24 09:59:53;;;;;;;1.83;0.70;;;9.80;98.20;;;;;;5069917;28;20617;-51
2020/12/24 10:02:19;;;;;;;1.27;0.57;;;9.80;98.40;;;;;;5069679;28;20650;-50
2020/12/24 10:04:46;;;;;;;4.33;0.80;;;9.80;97.70;;;;;;5069061;28;20684;-51
2020/12/24 10:07:13;;;;;;;1.90;0.60;;;9.90;98.00;;;;;;5069679;28;20641;-52
2020/12/24 10:09:41;;;;;;;1.30;0.70;;;9.90;97.90;;;;;;5069662;28;20698;-52
2020/12/24 10:12:07;;;;;;;0.53;0.50;;;9.90;97.70;;;;;;5069858;28;21262;-53
2020/12/24 10:14:34;;;;;;;0.93;0.70;;;9.90;97.90;;;;;;5069538;28;20661;-52
2020/12/24 10:17:04;;;;;;;2.77;1.00;;;10.00;97.30;;;;;;5069577;28;20661;-52
2020/12/24 10:19:31;;;;;;;1.70;0.70;;;10.10;97.30;;;;;;5069450;28;20687;-53
2020/12/24 10:21:58;;;;;;;0.40;0.40;;;10.20;97.00;;;;;;5069438;28;20965;-52
2020/12/24 10:24:25;;;;;;;0.70;0.70;;;10.20;97.00;;;;;;5069368;28;20621;-53
2020/12/24 10:26:55;;;;;;;1.40;0.87;;;10.10;96.80;;;;;;5069221;28;21220;-52
2020/12/24 10:29:22;;;;;;;0.80;0.60;;;10.10;97.30;;;;;;5069010;28;20690;-53
2020/12/24 10:31:48;;;;;;;0.77;0.77;;;10.20;97.40;;;;;;5069247;28;21197;-52
2020/12/24 10:34:15;;;;;;;0.60;0.60;;;10.20;97.40;;;;;;5069431;28;20665;-53
2020/12/24 10:36:42;;;;;;;0.93;0.70;;;10.10;97.20;;;;;;5069261;28;20742;-53
2020/12/24 10:39:09;;;;;;;1.27;0.60;;;10.20;97.30;;;;;;5071360;28;20629;-52
2020/12/24 10:41:37;;;;;;;1.20;0.67;;;10.20;97.40;;;;;;5073375;28;20687;-52
2020/12/24 10:44:05;;;;;;;1.17;0.87;;;10.20;97.40;;;;;;5073373;28;21017;-52
2020/12/24 10:46:32;;;;;;;0.90;0.90;;;10.20;97.40;;;;;;5055075;28;21045;-52
2020/12/24 10:48:59;;;;;;;2.20;1.03;;;10.20;97.40;;;;;;5073467;28;20640;-52
2020/12/24 10:51:26;;;;;;;0.93;0.60;;;10.30;97.50;;;;;;5073752;28;20617;-53
2020/12/24 10:53:53;;;;;;;1.70;0.77;;;10.30;97.60;;;;;;5073070;28;20649;-51
2020/12/24 10:56:20;;;;;;;1.30;0.83;;;10.40;97.50;;;;;;5073317;28;20695;-52
2020/12/24 10:58:47;;;;;;;0.60;0.60;;;10.40;97.60;;;;;;5073180;28;20625;-53
2020/12/24 11:01:15;;;;;;;3.03;1.20;;;10.30;97.40;;;;;;5072797;28;21153;-52
2020/12/24 11:03:41;;;;;;;1.10;0.67;;;10.30;97.30;;;;;;5072702;28;20625;-52
2020/12/24 11:06:08;;;;;;;1.30;0.63;;;10.40;97.50;;;;;;5073215;28;20702;-53
2020/12/24 11:08:35;;;;;;;3.07;1.10;;;10.50;97.60;;;;;;5073037;28;20625;-51
2020/12/24 11:11:02;;;;;;;1.00;0.60;;;10.50;97.70;;;;;;5072977;28;20682;-53
2020/12/24 11:13:28;;;;;;;3.73;0.53;;;10.60;97.40;;;;;;5072284;28;20664;-53
2020/12/24 11:15:55;;;;;;;0.90;0.73;;;10.70;97.10;;;;;;5072854;28;21037;-52
2020/12/24 11:18:23;;;;;;;2.50;0.77;;;10.80;97.10;;;;;;5105225;22;21242;-55
2020/12/24 11:20:50;;;;;;;1.30;0.77;;;10.80;97.00;;;;;;5094956;28;20677;-54
2020/12/24 11:23:16;;;;;;;1.17;0.63;;;10.90;96.80;;;;;;5076479;28;20696;-54
2020/12/24 11:25:43;;;;;;;3.43;0.70;;;10.80;96.80;;;;;;5095130;28;20663;-55
2020/12/24 11:28:10;;;;;;;1.83;0.70;;;10.80;97.20;;;;;;5094475;28;20652;-55
2020/12/24 11:30:37;;;;;;;0.73;0.60;;;10.80;97.10;;;;;;5095041;28;20677;-55
2020/12/24 11:33:04;;;;;;;1.90;1.50;;;10.80;97.00;;;;;;5094801;28;21027;-55
2020/12/24 11:35:31;;;;;;;0.50;0.50;;;10.80;97.20;;;;;;5094378;28;21214;-55
2020/12/24 11:37:58;;;;;;;1.53;1.00;;;10.80;97.20;;;;;;5094693;28;20655;-55
2020/12/24 11:40:25;;;;;;;1.70;0.70;;;10.80;97.00;;;;;;5081075;28;21033;-55
2020/12/24 11:42:54;;;;;;;1.47;0.87;;;10.80;96.90;;;;;;5073733;28;20624;-55
2020/12/24 11:45:21;;;;;;;0.90;0.50;;;10.80;96.90;;;;;;5073957;28;21168;-55
2020/12/24 11:47:47;;;;;;;0.70;0.40;;;10.90;96.40;;;;;;5073773;28;21075;-54
2020/12/24 11:50:14;;;;;;;0.63;0.40;;;10.80;95.90;;;;;;5072825;28;20633;-54
2020/12/24 11:52:42;;;;;;;2.43;0.80;;;10.80;95.90;;;;;;5073758;28;20728;-55
2020/12/24 11:55:09;;;;;;;0.70;0.60;;;10.80;96.30;;;;;;5073896;28;20672;-55
2020/12/24 11:57:36;;;;;;;0.83;0.40;;;11.00;96.40;;;;;;5073943;28;20661;-55
2020/12/24 12:00:04;;;;;;;1.47;0.80;;;11.10;96.00;;;;;;5073835;28;20621;-55
2020/12/24 12:02:31;;;;;;;0.70;0.63;;;11.20;95.70;;;;;;5073499;28;20682;-53
2020/12/24 12:04:58;;;;;;;0.50;0.50;;;11.20;95.20;;;;;;5073629;28;20686;-53
2020/12/24 12:07:25;;;;;;;0.50;0.50;;;11.30;95.00;;;;;;5073368;28;21281;-54
2020/12/24 12:09:53;;;;;;;1.03;0.50;;;11.30;94.30;;;;;;5055255;28;20637;-56
2020/12/24 12:12:20;;;;;;;0.50;0.50;;;11.20;94.30;;;;;;5073390;28;20633;-55
2020/12/24 12:14:47;;;;;;;0.80;0.40;;;11.20;93.90;;;;;;5072950;28;20661;-55
2020/12/24 12:17:15;;;;;;;0.50;0.40;;;11.30;94.40;;;;;;5073154;28;20706;-55
2020/12/24 12:19:44;;;;;;;1.30;0.50;;;11.30;93.70;;;;;;5073368;28;20676;-55
2020/12/24 12:22:11;;;;;;;1.47;0.70;;;11.40;94.10;;;;;;5073333;28;20690;-55
2020/12/24 12:24:37;;;;;;;3.07;0.50;;;11.40;94.10;;;;;;5073174;28;20762;-55
2020/12/24 12:27:06;;;;;;;0.57;0.40;;;11.50;93.90;;;;;;5072803;28;20726;-55
2020/12/24 12:29:33;;;;;;;0.63;0.40;;;11.50;93.70;;;;;;5073151;28;20625;-54
2020/12/24 12:32:00;;;;;;;0.70;0.47;;;11.50;93.80;;;;;;5072809;28;20651;-55
2020/12/24 12:34:27;;;;;;;0.70;0.57;;;11.60;93.50;;;;;;5054718;28;21298;-55
2020/12/24 12:36:53;;;;;;;0.50;0.43;;;11.50;92.80;;;;;;5073109;28;21286;-55
2020/12/24 12:39:22;;;;;;;1.07;0.60;;;11.40;92.80;;;;;;5073143;28;20628;-55
2020/12/24 12:41:49;;;;;;;0.60;0.50;;;11.30;93.60;;;;;;5073055;28;21180;-55
2020/12/24 12:44:17;;;;;;;0.60;0.47;;;11.30;93.50;;;;;;5054512;28;20632;-55
2020/12/24 12:46:43;;;;;;;1.33;0.50;;;11.30;93.60;;;;;;5054867;28;20806;-54
2020/12/24 12:49:10;;;;;;;0.53;0.53;;;11.30;93.60;;;;;;5072762;28;20690;-55
2020/12/24 12:51:37;;;;;;;0.80;0.70;;;11.40;93.70;;;;;;5072670;28;20625;-54